createdAt,value
2023-07-03T00:00:21.802Z,98.62
2023-07-03T00:01:21.759Z,99.02
2023-07-03T00:02:22.724Z,98.72
2023-07-03T00:03:21.690Z,98.72
2023-07-03T00:04:21.764Z,98.72
2023-07-03T00:05:21.205Z,99.02
2023-07-03T00:06:21.663Z,98.92
2023-07-03T00:07:21.638Z,99.13
2023-07-03T00:08:21.626Z,99.33
2023-07-03T00:09:21.592Z,99.22
2023-07-03T00:10:21.601Z,99.33
2023-07-03T00:11:21.580Z,99.43
2023-07-03T00:12:21.585Z,99.33
2023-07-03T00:13:21.565Z,98.82
2023-07-03T00:14:21.524Z,98.92
2023-07-03T00:15:21.528Z,99.43
2023-07-03T00:16:21.536Z,99.63
2023-07-03T00:17:21.511Z,99.99
2023-07-03T00:18:21.493Z,99.43
2023-07-03T00:19:21.455Z,99.63
2023-07-03T00:20:21.445Z,99.94
2023-07-03T00:21:21.443Z,99.74
2023-07-03T00:22:21.452Z,99.99
2023-07-03T00:23:21.426Z,99.99
2023-07-03T00:24:21.393Z,99.99
2023-07-03T00:25:21.386Z,99.99
2023-07-03T00:26:21.385Z,99.99
2023-07-03T00:27:21.359Z,99.99
2023-07-03T00:28:21.332Z,99.99
2023-07-03T00:29:21.309Z,99.63
2023-07-03T00:30:21.288Z,99.33
2023-07-03T00:31:21.334Z,99.13
2023-07-03T00:32:21.282Z,99.13
2023-07-03T00:33:21.266Z,99.02
2023-07-03T00:34:21.265Z,98.72
2023-07-03T00:35:21.225Z,98.52
2023-07-03T00:36:21.214Z,98.21
2023-07-03T00:37:21.216Z,98.01
2023-07-03T00:38:21.373Z,98.21
2023-07-03T00:39:21.191Z,98.82
2023-07-03T00:40:21.189Z,98.32
2023-07-03T00:41:21.152Z,98.72
2023-07-03T00:42:21.151Z,98.62
2023-07-03T00:43:21.112Z,98.41
2023-07-03T00:44:21.116Z,98.52
2023-07-03T00:45:21.070Z,98.41
2023-07-03T00:46:21.177Z,98.92
2023-07-03T00:47:21.086Z,99.13
2023-07-03T00:48:21.030Z,99.33
2023-07-03T00:49:21.028Z,98.92
2023-07-03T00:50:21.059Z,97.96
2023-07-03T00:51:21.011Z,98.07
2023-07-03T00:52:21.011Z,98.57
2023-07-03T00:53:20.966Z,98.68
2023-07-03T00:54:20.960Z,98.68
2023-07-03T00:55:20.958Z,98.68
2023-07-03T00:56:20.938Z,98.68
2023-07-03T00:57:20.921Z,99.08
2023-07-03T00:58:20.505Z,99.58
2023-07-03T00:59:20.889Z,99.79
2023-07-03T01:00:20.884Z,98.77
2023-07-03T01:01:20.858Z,98.97
2023-07-03T01:02:20.899Z,99.28
2023-07-03T01:03:20.847Z,98.97
2023-07-03T01:04:20.854Z,98.77
2023-07-03T01:05:20.926Z,98.77
2023-07-03T01:06:20.795Z,98.47
2023-07-03T01:07:20.777Z,98.47
2023-07-03T01:08:20.805Z,98.57
2023-07-03T01:09:18.797Z,98.07
2023-07-03T01:10:20.763Z,97.66
2023-07-03T01:11:20.724Z,98.07
2023-07-03T01:12:20.704Z,98.16
2023-07-03T01:13:20.700Z,98.52
2023-07-03T01:14:20.685Z,98.88
2023-07-03T01:15:20.683Z,99.38
2023-07-03T01:16:20.705Z,99.38
2023-07-03T01:17:20.675Z,99.13
2023-07-03T01:18:20.623Z,98.97
2023-07-03T01:19:20.627Z,98.88
2023-07-03T01:20:20.598Z,98.27
2023-07-03T01:21:20.583Z,98.16
2023-07-03T01:22:20.590Z,98.07
2023-07-03T01:23:20.711Z,98.27
2023-07-03T01:24:20.562Z,98.27
2023-07-03T01:25:18.814Z,98.32
2023-07-03T01:26:20.516Z,98.57
2023-07-03T01:27:20.539Z,98.57
2023-07-03T01:28:20.515Z,98.88
2023-07-03T01:29:20.489Z,98.93
2023-07-03T01:30:20.471Z,98.52
2023-07-03T01:31:20.467Z,98.32
2023-07-03T01:32:20.455Z,98.83
2023-07-03T01:33:20.436Z,98.73
2023-07-03T01:34:20.472Z,98.93
2023-07-03T01:35:20.398Z,99.24
2023-07-03T01:36:20.378Z,99.54
2023-07-03T01:37:20.372Z,99.64
2023-07-03T01:38:20.379Z,99.54
2023-07-03T01:39:20.346Z,99.64
2023-07-03T01:40:20.368Z,99.13
2023-07-03T01:41:20.332Z,99.24
2023-07-03T01:42:20.325Z,99.44
2023-07-03T01:43:20.323Z,99.33
2023-07-03T01:44:20.265Z,99.33
2023-07-03T01:45:20.270Z,99.85
2023-07-03T01:46:20.321Z,99.44
2023-07-03T01:47:20.286Z,98.83
2023-07-03T01:48:20.238Z,99.04
2023-07-03T01:49:20.207Z,98.83
2023-07-03T01:50:20.202Z,98.73
2023-07-03T01:51:20.168Z,98.63
2023-07-03T01:52:20.167Z,98.93
2023-07-03T01:53:20.154Z,98.52
2023-07-03T01:54:20.161Z,97.81
2023-07-03T01:55:19.825Z,97.26
2023-07-03T01:56:20.102Z,97.71
2023-07-03T01:57:20.117Z,98.28
2023-07-03T01:58:20.118Z,97.36
2023-07-03T01:59:20.060Z,97.56
2023-07-03T02:00:20.049Z,97.47
2023-07-03T02:01:20.095Z,97.36
2023-07-03T02:02:20.109Z,96.66
2023-07-03T02:03:20.060Z,96.96
2023-07-03T02:04:20.054Z,96.66
2023-07-03T02:05:19.980Z,96.35
2023-07-03T02:06:19.961Z,95.84
2023-07-03T02:07:19.988Z,95.84
2023-07-03T02:08:19.942Z,96.35
2023-07-03T02:09:19.954Z,96.04
2023-07-03T02:10:19.916Z,95.54
2023-07-03T02:11:19.911Z,95.23
2023-07-03T02:12:19.903Z,95.43
2023-07-03T02:13:19.865Z,95.43
2023-07-03T02:14:19.850Z,95.43
2023-07-03T02:15:19.866Z,95.84
2023-07-03T02:16:19.856Z,96.25
2023-07-03T02:17:19.858Z,96.04
2023-07-03T02:18:19.798Z,96.15
2023-07-03T02:19:19.775Z,96.55
2023-07-03T02:20:19.774Z,96.30
2023-07-03T02:21:19.764Z,96.71
2023-07-03T02:22:19.761Z,96.41
2023-07-03T02:23:19.721Z,96.61
2023-07-03T02:24:19.704Z,96.51
2023-07-03T02:25:19.709Z,96.91
2023-07-03T02:26:19.689Z,97.36
2023-07-03T02:27:19.680Z,97.67
2023-07-03T02:28:19.668Z,97.92
2023-07-03T02:29:19.661Z,98.07
2023-07-03T02:30:19.651Z,98.18
2023-07-03T02:31:19.780Z,98.18
2023-07-03T02:32:19.601Z,97.97
2023-07-03T02:33:19.595Z,98.18
2023-07-03T02:34:19.616Z,98.48
2023-07-03T02:35:19.571Z,98.58
2023-07-03T02:36:19.562Z,98.58
2023-07-03T02:37:19.549Z,98.88
2023-07-03T02:38:19.538Z,99.29
2023-07-03T02:39:19.509Z,99.08
2023-07-03T02:40:19.504Z,99.29
2023-07-03T02:41:19.488Z,99.29
2023-07-03T02:42:19.499Z,99.19
2023-07-03T02:43:19.467Z,99.29
2023-07-03T02:44:19.447Z,99.49
2023-07-03T02:45:19.437Z,99.29
2023-07-03T02:46:19.405Z,99.60
2023-07-03T02:47:19.470Z,99.90
2023-07-03T02:48:19.420Z,99.85
2023-07-03T02:49:19.385Z,99.99
2023-07-03T02:50:19.386Z,99.99
2023-07-03T02:51:19.373Z,99.99
2023-07-03T02:52:19.340Z,99.90
2023-07-03T02:53:19.311Z,99.74
2023-07-03T02:54:19.318Z,99.85
2023-07-03T02:55:19.303Z,99.99
2023-07-03T02:56:19.278Z,99.99
2023-07-03T02:57:19.271Z,99.99
2023-07-03T02:58:19.284Z,99.99
2023-07-03T02:59:19.252Z,99.99
2023-07-03T03:00:19.253Z,99.99
2023-07-03T03:01:19.361Z,99.99
2023-07-03T03:02:18.756Z,99.99
2023-07-03T03:03:19.258Z,99.99
2023-07-03T03:04:19.190Z,99.99
2023-07-03T03:05:19.153Z,99.99
2023-07-03T03:06:19.139Z,99.99
2023-07-03T03:07:19.131Z,99.99
2023-07-03T03:08:19.108Z,99.99
2023-07-03T03:09:19.100Z,99.99
2023-07-03T03:10:19.076Z,99.99
2023-07-03T03:11:19.085Z,99.99
2023-07-03T03:12:19.047Z,99.99
2023-07-03T03:13:19.063Z,99.99
2023-07-03T03:14:19.015Z,99.99
2023-07-03T03:15:19.006Z,99.99
2023-07-03T03:16:19.032Z,99.99
2023-07-03T03:17:18.975Z,99.99
2023-07-03T03:18:19.003Z,99.99
2023-07-03T03:19:18.970Z,99.99
2023-07-03T03:20:18.934Z,99.99
2023-07-03T03:21:18.957Z,99.99
2023-07-03T03:22:18.913Z,99.99
2023-07-03T03:23:18.917Z,99.99
2023-07-03T03:24:18.891Z,99.99
2023-07-03T03:25:18.874Z,99.99
2023-07-03T03:26:18.876Z,99.99
2023-07-03T03:27:18.875Z,99.99
2023-07-03T03:28:18.855Z,99.99
2023-07-03T03:29:18.827Z,99.99
2023-07-03T03:30:18.324Z,99.99
2023-07-03T03:31:18.933Z,99.99
2023-07-03T03:32:18.922Z,99.99
2023-07-03T03:33:18.775Z,99.99
2023-07-03T03:34:18.753Z,99.99
2023-07-03T03:35:18.736Z,99.99
2023-07-03T03:36:18.718Z,99.99
2023-07-03T03:37:18.711Z,99.99
2023-07-03T03:38:18.701Z,99.99
2023-07-03T03:39:18.682Z,99.99
2023-07-03T03:40:18.660Z,99.99
2023-07-03T03:41:18.653Z,99.99
2023-07-03T03:42:18.660Z,99.99
2023-07-03T03:43:18.621Z,99.99
2023-07-03T03:44:18.613Z,99.99
2023-07-03T03:45:18.600Z,99.99
2023-07-03T03:46:18.584Z,99.99
2023-07-03T03:47:18.681Z,99.99
2023-07-03T03:48:18.599Z,99.99
2023-07-03T03:49:18.543Z,99.99
2023-07-03T03:50:18.561Z,99.99
2023-07-03T03:51:18.520Z,99.99
2023-07-03T03:52:18.517Z,99.99
2023-07-03T03:53:18.491Z,99.99
2023-07-03T03:54:18.460Z,99.99
2023-07-03T03:55:18.470Z,99.99
2023-07-03T03:56:18.441Z,99.99
2023-07-03T03:57:18.448Z,99.99
2023-07-03T03:58:18.417Z,99.99
2023-07-03T03:59:18.406Z,99.99
2023-07-03T04:00:18.579Z,99.99
2023-07-03T04:01:18.395Z,99.99
2023-07-03T04:02:18.363Z,99.99
2023-07-03T04:03:18.346Z,99.99
2023-07-03T04:04:18.484Z,99.99
2023-07-03T04:05:18.378Z,99.99
2023-07-03T04:06:18.313Z,99.99
2023-07-03T04:07:18.305Z,99.99
2023-07-03T04:08:18.293Z,99.99
2023-07-03T04:09:18.261Z,99.99
2023-07-03T04:10:18.238Z,99.99
2023-07-03T04:11:18.250Z,99.99
2023-07-03T04:12:18.259Z,99.99
2023-07-03T04:13:18.199Z,99.99
2023-07-03T04:14:18.205Z,99.99
2023-07-03T04:15:18.169Z,99.99
2023-07-03T04:16:18.195Z,99.99
2023-07-03T04:17:18.158Z,99.99
2023-07-03T04:18:18.123Z,99.99
2023-07-03T04:19:18.137Z,99.99
2023-07-03T04:20:18.092Z,99.99
2023-07-03T04:21:19.154Z,99.99
2023-07-03T04:22:18.086Z,99.99
2023-07-03T04:23:18.068Z,99.99
2023-07-03T04:24:18.050Z,99.99
2023-07-03T04:25:18.051Z,99.99
2023-07-03T04:26:18.032Z,99.99
2023-07-03T04:27:18.014Z,99.99
2023-07-03T04:28:17.982Z,99.58
2023-07-03T04:29:18.005Z,99.99
2023-07-03T04:30:18.012Z,98.88
2023-07-03T04:31:18.009Z,98.22
2023-07-03T04:32:17.992Z,97.41
2023-07-03T04:33:17.910Z,97.20
2023-07-03T04:34:17.917Z,96.70
2023-07-03T04:35:17.910Z,92.90
2023-07-03T04:36:17.864Z,92.60
2023-07-03T04:37:17.882Z,92.45
2023-07-03T04:38:17.840Z,92.14
2023-07-03T04:39:17.834Z,91.94
2023-07-03T04:40:17.826Z,91.64
2023-07-03T04:41:17.802Z,88.90
2023-07-03T04:42:17.795Z,88.46
2023-07-03T04:43:17.794Z,88.66
2023-07-03T04:44:17.790Z,87.54
2023-07-03T04:45:17.758Z,86.90
2023-07-03T04:46:17.783Z,85.78
2023-07-03T04:47:17.739Z,86.29
2023-07-03T04:48:17.713Z,85.78
2023-07-03T04:49:17.717Z,85.33
2023-07-03T04:50:17.678Z,84.02
2023-07-03T04:51:17.694Z,83.51
2023-07-03T04:52:17.761Z,83.78
2023-07-03T04:53:17.632Z,83.07
2023-07-03T04:54:17.645Z,82.02
2023-07-03T04:55:17.614Z,80.50
2023-07-03T04:56:17.599Z,80.40
2023-07-03T04:57:17.585Z,78.78
2023-07-03T04:58:17.595Z,79.66
2023-07-03T04:59:17.562Z,79.66
2023-07-03T05:00:17.568Z,80.06
2023-07-03T05:01:17.587Z,78.44
2023-07-03T05:02:17.512Z,79.66
2023-07-03T05:03:17.582Z,79.35
2023-07-03T05:04:17.547Z,79.35
2023-07-03T05:05:17.490Z,78.41
2023-07-03T05:06:17.451Z,77.70
2023-07-03T05:07:17.467Z,76.69
2023-07-03T05:08:17.445Z,75.84
2023-07-03T05:09:17.423Z,75.37
2023-07-03T05:10:17.420Z,74.97
2023-07-03T05:11:17.393Z,74.77
2023-07-03T05:12:17.383Z,75.17
2023-07-03T05:13:17.393Z,74.97
2023-07-03T05:14:17.341Z,74.87
2023-07-03T05:15:17.338Z,74.57
2023-07-03T05:16:17.385Z,74.87
2023-07-03T05:17:17.304Z,74.16
2023-07-03T05:18:17.296Z,74.02
2023-07-03T05:19:16.861Z,73.52
2023-07-03T05:20:17.265Z,74.43
2023-07-03T05:21:17.258Z,73.08
2023-07-03T05:22:17.228Z,72.48
2023-07-03T05:23:17.249Z,73.18
2023-07-03T05:24:17.200Z,73.28
2023-07-03T05:25:17.193Z,71.77
2023-07-03T05:26:17.177Z,72.27
2023-07-03T05:27:17.206Z,72.58
2023-07-03T05:28:17.160Z,71.53
2023-07-03T05:29:17.144Z,71.73
2023-07-03T05:30:17.125Z,71.94
2023-07-03T05:31:17.148Z,71.64
2023-07-03T05:32:17.082Z,71.73
2023-07-03T05:33:17.119Z,71.20
2023-07-03T05:34:17.087Z,71.30
2023-07-03T05:35:17.077Z,69.82
2023-07-03T05:36:17.034Z,70.83
2023-07-03T05:37:17.036Z,71.03
2023-07-03T05:38:17.018Z,70.83
2023-07-03T05:39:17.084Z,70.39
2023-07-03T05:40:16.580Z,70.09
2023-07-03T05:41:16.956Z,69.59
2023-07-03T05:42:16.968Z,69.68
2023-07-03T05:43:16.940Z,69.18
2023-07-03T05:44:16.938Z,69.08
2023-07-03T05:45:16.932Z,69.99
2023-07-03T05:46:17.974Z,68.14
2023-07-03T05:47:16.985Z,68.85
2023-07-03T05:48:16.932Z,67.63
2023-07-03T05:49:16.852Z,68.54
2023-07-03T05:50:16.846Z,68.04
2023-07-03T05:51:16.892Z,67.91
2023-07-03T05:52:16.858Z,67.00
2023-07-03T05:53:16.811Z,66.77
2023-07-03T05:54:16.770Z,67.27
2023-07-03T05:55:16.802Z,66.97
2023-07-03T05:56:16.769Z,65.96
2023-07-03T05:57:16.778Z,67.10
2023-07-03T05:58:16.734Z,68.31
2023-07-03T05:59:16.729Z,68.01
2023-07-03T06:00:16.704Z,67.80
2023-07-03T06:01:16.788Z,67.00
2023-07-03T06:02:17.174Z,68.04
2023-07-03T06:03:18.482Z,68.11
2023-07-03T06:04:16.696Z,66.73
2023-07-03T06:05:16.670Z,67.33
2023-07-03T06:06:16.640Z,66.93
2023-07-03T06:07:16.615Z,67.63
2023-07-03T06:08:16.588Z,67.03
2023-07-03T06:09:16.577Z,66.33
2023-07-03T06:10:16.564Z,66.70
2023-07-03T06:11:16.566Z,67.13
2023-07-03T06:12:16.542Z,67.13
2023-07-03T06:13:16.531Z,66.93
2023-07-03T06:14:15.565Z,67.33
2023-07-03T06:15:16.530Z,67.03
2023-07-03T06:16:16.914Z,67.43
2023-07-03T06:17:15.668Z,66.93
2023-07-03T06:18:16.461Z,68.14
2023-07-03T06:19:16.435Z,65.89
2023-07-03T06:20:16.431Z,66.83
2023-07-03T06:21:16.420Z,66.22
2023-07-03T06:22:16.409Z,67.23
2023-07-03T06:23:16.385Z,67.13
2023-07-03T06:24:16.372Z,66.02
2023-07-03T06:25:16.364Z,66.36
2023-07-03T06:26:16.349Z,66.96
2023-07-03T06:27:16.345Z,67.27
2023-07-03T06:28:16.321Z,66.66
2023-07-03T06:29:16.326Z,66.66
2023-07-03T06:30:16.302Z,66.76
2023-07-03T06:31:16.320Z,67.13
2023-07-03T06:32:16.262Z,66.83
2023-07-03T06:33:16.277Z,67.13
2023-07-03T06:34:14.961Z,67.20
2023-07-03T06:35:16.326Z,66.30
2023-07-03T06:36:16.217Z,67.20
2023-07-03T06:37:16.194Z,66.80
2023-07-03T06:38:16.173Z,67.07
2023-07-03T06:39:16.183Z,66.06
2023-07-03T06:40:16.143Z,66.16
2023-07-03T06:41:16.142Z,65.26
2023-07-03T06:42:16.132Z,65.26
2023-07-03T06:43:16.099Z,66.06
2023-07-03T06:44:16.096Z,65.76
2023-07-03T06:45:16.080Z,65.42
2023-07-03T06:46:16.090Z,65.42
2023-07-03T06:47:16.059Z,65.73
2023-07-03T06:48:16.041Z,65.22
2023-07-03T06:49:16.028Z,64.59
2023-07-03T06:50:16.013Z,65.06
2023-07-03T06:51:16.014Z,64.43
2023-07-03T06:52:15.998Z,64.20
2023-07-03T06:53:15.983Z,63.49
2023-07-03T06:54:15.988Z,63.49
2023-07-03T06:55:15.948Z,63.59
2023-07-03T06:56:15.943Z,63.19
2023-07-03T06:57:15.924Z,63.36
2023-07-03T06:58:15.926Z,63.06
2023-07-03T06:59:15.898Z,62.89
2023-07-03T07:00:15.868Z,61.80
2023-07-03T07:01:15.847Z,60.11
2023-07-03T07:02:15.908Z,59.28
2023-07-03T07:03:15.928Z,57.45
2023-07-03T07:04:15.923Z,58.65
2023-07-03T07:05:15.902Z,59.48
2023-07-03T07:06:15.864Z,59.74
2023-07-03T07:07:15.765Z,60.44
2023-07-03T07:08:15.785Z,61.17
2023-07-03T07:09:15.750Z,61.80
2023-07-03T07:10:15.747Z,62.63
2023-07-03T07:11:15.753Z,62.70
2023-07-03T07:12:15.718Z,63.03
2023-07-03T07:13:15.718Z,64.27
2023-07-03T07:14:15.789Z,63.03
2023-07-03T07:15:15.657Z,63.53
2023-07-03T07:16:15.698Z,63.00
2023-07-03T07:17:15.665Z,62.70
2023-07-03T07:18:15.677Z,62.80
2023-07-03T07:19:15.673Z,62.20
2023-07-03T07:20:15.625Z,63.00
2023-07-03T07:21:15.625Z,64.34
2023-07-03T07:22:15.651Z,63.46
2023-07-03T07:23:15.598Z,64.57
2023-07-03T07:24:15.608Z,65.41
2023-07-03T07:25:16.049Z,66.20
2023-07-03T07:26:15.546Z,67.04
2023-07-03T07:27:15.599Z,67.00
2023-07-03T07:28:15.523Z,67.64
2023-07-03T07:29:16.033Z,67.31
2023-07-03T07:30:15.566Z,67.74
2023-07-03T07:31:15.611Z,68.75
2023-07-03T07:32:15.546Z,68.15
2023-07-03T07:33:15.414Z,68.35
2023-07-03T07:34:15.480Z,68.62
2023-07-03T07:35:15.394Z,68.51
2023-07-03T07:36:15.432Z,68.38
2023-07-03T07:37:15.373Z,67.55
2023-07-03T07:38:15.341Z,66.41
2023-07-03T07:39:15.333Z,65.67
2023-07-03T07:40:15.329Z,65.60
2023-07-03T07:41:15.318Z,66.41
2023-07-03T07:42:15.302Z,65.67
2023-07-03T07:43:15.275Z,62.44
2023-07-03T07:44:15.265Z,59.06
2023-07-03T07:45:15.239Z,55.83
2023-07-03T07:46:15.287Z,53.21
2023-07-03T07:47:15.225Z,51.42
2023-07-03T07:48:15.206Z,50.95
2023-07-03T07:49:15.205Z,49.96
2023-07-03T07:50:15.191Z,50.16
2023-07-03T07:51:15.200Z,51.00
2023-07-03T07:52:15.162Z,52.32
2023-07-03T07:53:15.154Z,52.79
2023-07-03T07:54:15.119Z,53.59
2023-07-03T07:55:15.127Z,54.53
2023-07-03T07:56:15.120Z,57.19
2023-07-03T07:57:15.093Z,58.82
2023-07-03T07:58:15.092Z,59.82
2023-07-03T07:59:15.051Z,60.28
2023-07-03T08:00:15.046Z,61.28
2023-07-03T08:01:15.079Z,60.85
2023-07-03T08:02:15.205Z,61.08
2023-07-03T08:03:15.113Z,62.48
2023-07-03T08:04:15.147Z,63.60
2023-07-03T08:05:15.441Z,64.87
2023-07-03T08:06:14.987Z,66.20
2023-07-03T08:07:14.950Z,66.91
2023-07-03T08:08:14.947Z,67.82
2023-07-03T08:09:14.936Z,66.71
2023-07-03T08:10:14.922Z,66.87
2023-07-03T08:11:14.912Z,67.35
2023-07-03T08:12:14.893Z,67.68
2023-07-03T08:13:14.879Z,67.14
2023-07-03T08:14:14.853Z,66.38
2023-07-03T08:15:14.844Z,64.91
2023-07-03T08:16:14.892Z,62.92
2023-07-03T08:17:14.338Z,59.95
2023-07-03T08:18:14.802Z,60.82
2023-07-03T08:19:16.000Z,56.48
2023-07-03T08:20:14.769Z,54.51
2023-07-03T08:21:14.749Z,53.71
2023-07-03T08:22:14.733Z,50.73
2023-07-03T08:23:14.737Z,50.31
2023-07-03T08:24:14.730Z,48.99
2023-07-03T08:25:14.711Z,49.91
2023-07-03T08:26:14.691Z,49.80
2023-07-03T08:27:14.666Z,56.14
2023-07-03T08:28:14.676Z,58.17
2023-07-03T08:29:13.690Z,58.26
2023-07-03T08:30:14.742Z,58.44
2023-07-03T08:31:14.640Z,59.09
2023-07-03T08:32:14.651Z,58.56
2023-07-03T08:33:15.244Z,59.17
2023-07-03T08:34:14.582Z,58.47
2023-07-03T08:37:14.559Z,59.45
2023-07-03T08:38:14.543Z,61.38
2023-07-03T08:39:14.516Z,62.47
2023-07-03T08:40:16.504Z,63.64
2023-07-03T08:41:14.614Z,64.04
2023-07-03T08:42:14.468Z,64.07
2023-07-03T08:43:14.475Z,64.48
2023-07-03T08:44:14.418Z,65.11
2023-07-03T08:45:14.482Z,64.51
2023-07-03T08:46:15.400Z,64.81
2023-07-03T08:47:14.462Z,65.01
2023-07-03T08:48:14.517Z,64.71
2023-07-03T08:49:14.357Z,65.04
2023-07-03T08:50:18.982Z,66.91
2023-07-03T08:51:15.336Z,67.24
2023-07-03T08:52:14.321Z,68.59
2023-07-03T08:53:14.299Z,68.68
2023-07-03T08:54:14.300Z,69.09
2023-07-03T08:55:14.282Z,68.65
2023-07-03T08:56:14.276Z,67.04
2023-07-03T08:57:14.280Z,67.01
2023-07-03T08:58:14.244Z,65.18
2023-07-03T08:59:14.215Z,59.83
2023-07-03T09:00:14.219Z,57.11
2023-07-03T09:01:14.261Z,55.33
2023-07-03T09:02:14.233Z,58.19
2023-07-03T09:03:14.249Z,59.69
2023-07-03T09:04:14.189Z,61.15
2023-07-03T09:05:14.466Z,60.10
2023-07-03T09:06:14.137Z,60.27
2023-07-03T09:07:14.095Z,58.56
2023-07-03T09:08:14.094Z,58.97
2023-07-03T09:09:14.094Z,60.35
2023-07-03T09:10:14.082Z,59.42
2023-07-03T09:11:14.051Z,58.56
2023-07-03T09:12:14.045Z,58.92
2023-07-03T09:13:14.046Z,59.59
2023-07-03T09:14:14.015Z,53.94
2023-07-03T09:15:14.014Z,52.72
2023-07-03T09:16:14.095Z,54.06
2023-07-03T09:17:14.098Z,53.94
2023-07-03T09:18:14.084Z,53.39
2023-07-03T09:19:13.944Z,55.46
2023-07-03T09:20:13.619Z,52.07
2023-07-03T09:21:13.912Z,54.14
2023-07-03T09:22:13.923Z,55.51
2023-07-03T09:23:14.048Z,53.44
2023-07-03T09:24:13.906Z,55.41
2023-07-03T09:25:14.222Z,55.51
2023-07-03T09:26:13.338Z,55.41
2023-07-03T09:27:13.845Z,56.41
2023-07-03T09:28:13.841Z,57.52
2023-07-03T09:29:14.023Z,59.08
2023-07-03T09:30:15.127Z,58.85
2023-07-03T09:31:14.862Z,56.57
2023-07-03T09:32:14.363Z,55.43
2023-07-03T09:33:13.800Z,54.59
2023-07-03T09:34:14.767Z,55.21
2023-07-03T09:35:13.735Z,56.94
2023-07-03T09:36:13.719Z,57.82
2023-07-03T09:37:14.493Z,58.85
2023-07-03T09:38:13.683Z,58.89
2023-07-03T09:39:13.898Z,57.98
2023-07-03T09:40:13.717Z,55.88
2023-07-03T09:41:13.654Z,55.79
2023-07-03T09:42:13.632Z,56.59
2023-07-03T09:43:13.621Z,56.44
2023-07-03T09:44:13.715Z,58.45
2023-07-03T09:45:13.568Z,60.28
2023-07-03T09:46:13.579Z,59.65
2023-07-03T09:47:13.567Z,59.30
2023-07-03T09:48:13.617Z,58.76
2023-07-03T09:49:13.535Z,59.17
2023-07-03T09:50:14.630Z,57.67
2023-07-03T09:51:13.768Z,58.32
2023-07-03T09:52:13.502Z,59.65
2023-07-03T09:53:14.221Z,60.31
2023-07-03T09:54:13.460Z,61.34
2023-07-03T09:55:13.443Z,61.84
2023-07-03T09:56:13.446Z,62.47
2023-07-03T09:57:13.420Z,62.60
2023-07-03T09:58:13.409Z,62.10
2023-07-03T09:59:13.393Z,62.17
2023-07-03T10:00:13.383Z,62.47
2023-07-03T10:07:13.361Z,61.24
2023-07-03T10:08:13.444Z,62.47
2023-07-03T10:11:13.287Z,62.57
2023-07-03T10:12:13.612Z,62.44
2023-07-03T10:13:13.197Z,62.14
2023-07-03T10:14:13.186Z,62.60
2023-07-03T10:15:13.173Z,63.87
2023-07-03T10:16:13.155Z,63.67
2023-07-03T10:17:13.221Z,62.34
2023-07-03T10:18:12.684Z,62.31
2023-07-03T10:19:13.114Z,61.18
2023-07-03T10:20:13.131Z,60.48
2023-07-03T10:21:13.110Z,60.44
2023-07-03T10:22:13.084Z,61.91
2023-07-03T10:23:13.077Z,61.38
2023-07-03T10:24:13.054Z,60.95
2023-07-03T10:25:13.021Z,60.55
2023-07-03T10:26:13.056Z,59.09
2023-07-03T10:27:13.104Z,57.67
2023-07-03T10:28:12.986Z,58.47
2023-07-03T10:29:12.999Z,57.97
2023-07-03T10:30:12.980Z,58.56
2023-07-03T10:31:12.993Z,58.04
2023-07-03T10:32:13.019Z,58.37
2023-07-03T10:33:13.014Z,58.59
2023-07-03T10:34:12.900Z,59.49
2023-07-03T10:35:12.911Z,58.80
2023-07-03T10:36:12.904Z,58.26
2023-07-03T10:37:12.887Z,58.37
2023-07-03T10:38:12.857Z,57.98
2023-07-03T10:39:12.832Z,56.16
2023-07-03T10:40:12.854Z,56.84
2023-07-03T10:41:12.823Z,56.74
2023-07-03T10:42:12.818Z,57.46
2023-07-03T10:43:12.802Z,58.39
2023-07-03T10:44:12.768Z,57.37
2023-07-03T10:45:12.802Z,57.34
2023-07-03T10:46:12.802Z,56.31
2023-07-03T10:47:12.755Z,56.38
2023-07-03T10:48:12.725Z,56.48
2023-07-03T10:49:12.718Z,56.26
2023-07-03T10:50:12.709Z,55.66
2023-07-03T10:51:12.700Z,56.70
2023-07-03T10:52:12.727Z,60.91
2023-07-03T10:53:12.640Z,61.08
2023-07-03T10:54:12.638Z,61.68
2023-07-03T10:55:12.633Z,61.45
2023-07-03T10:56:12.608Z,61.28
2023-07-03T10:57:12.582Z,60.91
2023-07-03T10:58:12.592Z,61.61
2023-07-03T10:59:12.681Z,61.68
2023-07-03T11:00:12.600Z,61.28
2023-07-03T11:01:12.599Z,60.58
2023-07-03T11:02:12.519Z,60.91
2023-07-03T11:03:12.658Z,61.21
2023-07-03T11:04:23.868Z,61.11
2023-07-03T11:05:13.499Z,61.61
2023-07-03T11:06:12.507Z,61.01
2023-07-03T11:07:12.480Z,60.61
2023-07-03T11:08:12.464Z,60.51
2023-07-03T11:09:12.444Z,59.91
2023-07-03T11:10:12.416Z,60.48
2023-07-03T11:11:12.388Z,60.38
2023-07-03T11:12:12.382Z,61.44
2023-07-03T11:13:12.427Z,61.94
2023-07-03T11:14:12.358Z,62.11
2023-07-03T11:15:12.347Z,61.91
2023-07-03T11:16:12.383Z,61.88
2023-07-03T11:17:12.314Z,60.98
2023-07-03T11:20:12.487Z,61.78
2023-07-03T11:23:12.691Z,60.32
2023-07-03T11:24:12.239Z,60.12
2023-07-03T11:25:12.226Z,60.29
2023-07-03T11:28:12.156Z,59.56
2023-07-03T11:29:12.141Z,58.84
2023-07-03T11:30:12.253Z,58.11
2023-07-03T11:31:12.205Z,58.81
2023-07-03T11:32:12.128Z,58.34
2023-07-03T11:33:12.088Z,58.76
2023-07-03T11:36:12.375Z,59.39
2023-07-03T11:37:12.042Z,60.39
2023-07-03T11:40:12.057Z,60.82
2023-07-03T11:44:11.938Z,59.23
2023-07-03T11:45:11.931Z,59.04
2023-07-03T11:46:11.914Z,59.34
2023-07-03T11:47:12.014Z,59.31
2023-07-03T11:48:11.885Z,58.51
2023-07-03T11:49:11.880Z,58.24
2023-07-03T11:50:11.383Z,58.94
2023-07-03T11:51:11.844Z,59.14
2023-07-03T11:52:11.887Z,59.04
2023-07-03T11:53:11.822Z,59.86
2023-07-03T11:54:11.812Z,59.51
2023-07-03T11:55:11.819Z,58.85
2023-07-03T11:56:14.341Z,56.70
2023-07-03T11:57:11.766Z,56.35
2023-07-03T11:58:21.052Z,56.70
2023-07-03T11:59:12.723Z,57.47
2023-07-03T12:00:11.768Z,56.77
2023-07-03T12:01:11.789Z,57.40
2023-07-03T12:02:11.700Z,57.86
2023-07-03T12:03:11.783Z,60.03
2023-07-03T12:04:11.835Z,60.83
2023-07-03T12:05:11.652Z,59.36
2023-07-03T12:06:11.657Z,60.92
2023-07-03T12:07:11.627Z,62.45
2023-07-03T12:08:11.653Z,63.56
2023-07-03T12:09:11.582Z,63.15
2023-07-03T12:10:11.567Z,63.15
2023-07-03T12:11:11.565Z,62.32
2023-07-03T12:12:11.554Z,62.39
2023-07-03T12:13:11.561Z,61.26
2023-07-03T12:14:11.518Z,61.36
2023-07-03T12:15:11.501Z,61.46
2023-07-03T12:16:11.509Z,61.66
2023-07-03T12:17:11.528Z,60.91
2023-07-03T12:18:11.460Z,60.61
2023-07-03T12:19:11.448Z,60.33
2023-07-03T12:20:11.439Z,62.19
2023-07-03T12:21:11.439Z,61.96
2023-07-03T12:22:11.419Z,61.36
2023-07-03T12:23:11.412Z,62.22
2023-07-03T12:24:11.383Z,63.56
2023-07-03T12:25:11.395Z,63.53
2023-07-03T12:26:11.368Z,64.36
2023-07-03T12:27:11.351Z,64.42
2023-07-03T12:28:11.356Z,64.22
2023-07-03T12:29:11.295Z,63.69
2023-07-03T12:30:11.288Z,63.19
2023-07-03T12:31:11.319Z,64.79
2023-07-03T12:32:11.262Z,64.09
2023-07-03T12:33:11.272Z,64.49
2023-07-03T12:34:11.529Z,64.22
2023-07-03T12:35:11.226Z,64.42
2023-07-03T12:36:11.234Z,64.12
2023-07-03T12:37:11.196Z,65.22
2023-07-03T12:38:11.176Z,64.92
2023-07-03T12:39:11.167Z,64.65
2023-07-03T12:40:11.165Z,65.05
2023-07-03T12:41:11.148Z,64.06
2023-07-03T12:42:11.171Z,63.53
2023-07-03T12:43:16.794Z,62.04
2023-07-03T12:44:11.132Z,59.88
2023-07-03T12:45:11.108Z,59.65
2023-07-03T12:46:11.088Z,59.32
2023-07-03T12:47:11.083Z,59.00
2023-07-03T12:48:11.051Z,58.50
2023-07-03T12:49:11.038Z,58.10
2023-07-03T12:50:11.054Z,59.55
2023-07-03T12:51:10.994Z,59.02
2023-07-03T12:52:11.007Z,58.29
2023-07-03T12:53:10.983Z,60.35
2023-07-03T12:54:10.994Z,59.92
2023-07-03T12:55:14.936Z,58.24
2023-07-03T12:56:10.985Z,56.70
2023-07-03T12:57:10.941Z,57.09
2023-07-03T12:58:10.894Z,56.17
2023-07-03T12:59:10.908Z,55.94
2023-07-03T13:00:10.901Z,55.47
2023-07-03T13:01:10.917Z,56.10
2023-07-03T13:02:10.876Z,56.62
2023-07-03T13:03:10.843Z,56.62
2023-07-03T13:04:10.877Z,57.45
2023-07-03T13:05:10.932Z,57.29
2023-07-03T13:06:10.849Z,56.67
2023-07-03T13:07:10.788Z,57.14
2023-07-03T13:08:10.770Z,56.79
2023-07-03T13:09:10.776Z,58.70
2023-07-03T13:10:10.755Z,59.77
2023-07-03T13:11:10.716Z,59.69
2023-07-03T13:12:10.729Z,58.97
2023-07-03T13:13:10.812Z,59.23
2023-07-03T13:14:10.701Z,56.30
2023-07-03T13:15:10.771Z,56.02